createdAt,value
2022-12-11T00:00:49.177Z,5.30
2022-12-11T00:03:19.303Z,5.30
2022-12-11T00:05:46.496Z,5.31
2022-12-11T00:08:13.364Z,5.28
2022-12-11T00:10:40.336Z,5.30
2022-12-11T00:13:07.047Z,5.35
2022-12-11T00:15:33.807Z,5.37
2022-12-11T00:18:00.389Z,5.25
2022-12-11T00:20:27.201Z,5.34
2022-12-11T00:22:53.877Z,5.17
2022-12-11T00:25:20.607Z,5.39
2022-12-11T00:27:47.587Z,5.34
2022-12-11T00:30:14.824Z,5.26
2022-12-11T00:32:41.675Z,5.34
2022-12-11T00:35:09.149Z,5.32
2022-12-11T00:37:36.171Z,5.24
2022-12-11T00:40:03.102Z,5.29
2022-12-11T00:42:29.769Z,5.34
2022-12-11T00:44:56.456Z,5.37
2022-12-11T00:47:23.259Z,5.29
2022-12-11T00:49:50.340Z,5.29
2022-12-11T00:52:18.079Z,5.24
2022-12-11T00:54:45.207Z,5.32
2022-12-11T00:57:11.882Z,5.17
2022-12-11T00:59:38.952Z,5.17
2022-12-11T01:02:05.640Z,5.21
2022-12-11T01:04:32.447Z,5.20
2022-12-11T01:06:59.053Z,5.13
2022-12-11T01:09:44.140Z,5.18
2022-12-11T01:12:10.781Z,5.13
2022-12-11T01:14:37.341Z,5.17
2022-12-11T01:17:04.162Z,5.08
2022-12-11T01:19:31.017Z,5.11
2022-12-11T01:21:57.618Z,5.08
2022-12-11T01:24:24.349Z,5.17
2022-12-11T01:26:51.122Z,5.17
2022-12-11T01:29:17.774Z,5.01
2022-12-11T01:31:44.712Z,5.10
2022-12-11T01:34:11.307Z,5.10
2022-12-11T01:36:37.923Z,5.10
2022-12-11T01:39:04.509Z,5.16
2022-12-11T01:41:31.244Z,5.12
2022-12-11T01:44:06.154Z,5.16
2022-12-11T01:46:35.976Z,5.07
2022-12-11T01:49:07.346Z,5.05
2022-12-11T01:51:39.103Z,5.05
2022-12-11T01:54:11.589Z,5.01
2022-12-11T01:56:42.056Z,5.00
2022-12-11T01:59:10.150Z,4.95
2022-12-11T02:01:45.156Z,5.08
2022-12-11T02:04:15.904Z,4.97
2022-12-11T02:06:45.438Z,5.03
2022-12-11T02:09:15.148Z,5.00
2022-12-11T02:11:57.656Z,4.96
2022-12-11T02:14:24.385Z,5.00
2022-12-11T02:16:55.159Z,4.99
2022-12-11T02:19:39.198Z,5.00
2022-12-11T02:22:11.561Z,4.97
2022-12-11T02:24:41.269Z,4.96
2022-12-11T02:27:32.376Z,4.96
2022-12-11T02:30:08.099Z,4.93
2022-12-11T02:32:57.696Z,4.94
2022-12-11T02:35:43.639Z,4.96
2022-12-11T02:38:19.281Z,4.99
2022-12-11T02:40:48.860Z,4.92
2022-12-11T02:43:18.009Z,4.70
2022-12-11T02:45:46.899Z,4.66
2022-12-11T02:48:15.063Z,4.83
2022-12-11T02:50:46.563Z,4.76
2022-12-11T02:53:18.671Z,4.83
2022-12-11T02:55:47.461Z,4.82
2022-12-11T02:58:25.543Z,4.87
2022-12-11T03:00:52.274Z,4.76
2022-12-11T03:03:18.946Z,4.64
2022-12-11T03:05:46.368Z,4.82
2022-12-11T03:08:17.410Z,4.71
2022-12-11T03:10:45.461Z,4.71
2022-12-11T03:13:16.849Z,4.70
2022-12-11T03:15:52.338Z,4.79
2022-12-11T03:18:27.573Z,4.61
2022-12-11T03:21:05.043Z,4.68
2022-12-11T03:23:52.719Z,4.62
2022-12-11T03:26:21.952Z,4.57
2022-12-11T03:28:56.152Z,4.56
2022-12-11T03:31:36.843Z,4.67
2022-12-11T03:34:12.276Z,4.70
2022-12-11T03:36:40.023Z,4.74
2022-12-11T03:39:12.647Z,4.75
2022-12-11T03:41:41.104Z,4.71
2022-12-11T03:44:09.143Z,4.55
2022-12-11T03:46:39.254Z,4.67
2022-12-11T03:49:15.408Z,4.58
2022-12-11T03:51:43.344Z,4.68
2022-12-11T03:54:11.173Z,4.71
2022-12-11T03:56:39.880Z,4.67
2022-12-11T03:59:06.645Z,4.58
2022-12-11T04:01:33.345Z,4.67
2022-12-11T04:03:59.993Z,4.68
2022-12-11T04:06:26.853Z,4.61
2022-12-11T04:08:53.488Z,4.60
2022-12-11T04:11:35.178Z,4.52
2022-12-11T04:14:24.192Z,4.51
2022-12-11T04:16:51.045Z,4.50
2022-12-11T04:19:36.690Z,4.49
2022-12-11T04:22:22.507Z,4.52
2022-12-11T04:24:50.212Z,4.45
2022-12-11T04:27:36.874Z,4.45
2022-12-11T04:30:06.680Z,4.48
2022-12-11T04:32:33.280Z,4.42
2022-12-11T04:34:59.918Z,4.45
2022-12-11T04:37:28.298Z,4.43
2022-12-11T04:39:54.912Z,4.46
2022-12-11T04:42:21.540Z,4.42
2022-12-11T04:44:48.073Z,4.49
2022-12-11T04:47:14.771Z,4.50
2022-12-11T04:49:41.388Z,4.50
2022-12-11T04:52:08.329Z,4.52
2022-12-11T04:54:35.046Z,4.43
2022-12-11T04:57:01.764Z,4.40
2022-12-11T04:59:28.394Z,4.43
2022-12-11T05:01:55.102Z,4.45
2022-12-11T05:04:21.801Z,4.39
2022-12-11T05:06:50.097Z,4.37
2022-12-11T05:09:17.270Z,4.33
2022-12-11T05:11:43.974Z,4.31
2022-12-11T05:14:10.713Z,4.26
2022-12-11T05:16:37.392Z,4.41
2022-12-11T05:19:04.027Z,4.38
2022-12-11T05:21:34.985Z,4.35
2022-12-11T05:24:02.507Z,4.36
2022-12-11T05:26:29.180Z,4.36
2022-12-11T05:28:56.278Z,4.33
2022-12-11T05:31:25.182Z,4.26
2022-12-11T05:33:52.847Z,4.24
2022-12-11T05:36:31.574Z,4.24
2022-12-11T05:38:59.488Z,4.23
2022-12-11T05:41:28.396Z,4.27
2022-12-11T05:43:55.277Z,4.24
2022-12-11T05:46:24.751Z,4.16
2022-12-11T05:48:54.883Z,4.16
2022-12-11T05:51:21.811Z,4.21
2022-12-11T05:53:50.882Z,4.19
2022-12-11T05:56:26.494Z,4.20
2022-12-11T05:58:53.569Z,4.19
2022-12-11T06:01:24.508Z,4.10
2022-12-11T06:03:51.730Z,4.09
2022-12-11T06:06:18.466Z,4.07
2022-12-11T06:08:45.150Z,4.06
2022-12-11T06:11:20.936Z,4.08
2022-12-11T06:13:50.488Z,4.02
2022-12-11T06:16:17.165Z,4.07
2022-12-11T06:18:45.077Z,4.03
2022-12-11T06:21:21.520Z,4.02
2022-12-11T06:23:49.805Z,4.05
2022-12-11T06:26:17.457Z,4.12
2022-12-11T06:28:44.227Z,4.14
2022-12-11T06:31:11.805Z,4.10
2022-12-11T06:33:39.080Z,4.09
2022-12-11T06:36:08.225Z,4.03
2022-12-11T06:38:35.507Z,4.06
2022-12-11T06:41:04.902Z,4.03
2022-12-11T06:43:32.638Z,4.01
2022-12-11T06:46:03.766Z,4.07
2022-12-11T06:48:31.808Z,4.01
2022-12-11T06:50:58.444Z,3.96
2022-12-11T06:53:25.123Z,4.01
2022-12-11T06:55:51.831Z,4.02
2022-12-11T06:58:18.523Z,3.95
2022-12-11T07:00:45.172Z,3.93
2022-12-11T07:03:13.680Z,3.95
2022-12-11T07:05:40.337Z,4.02
2022-12-11T07:08:07.387Z,3.87
2022-12-11T07:10:34.309Z,3.96
2022-12-11T07:13:01.479Z,3.97
2022-12-11T07:15:28.289Z,3.95
2022-12-11T07:17:55.139Z,3.97
2022-12-11T07:20:22.083Z,3.97
2022-12-11T07:22:48.832Z,3.99
2022-12-11T07:25:15.704Z,3.97
2022-12-11T07:27:42.608Z,3.93
2022-12-11T07:30:10.698Z,3.83
2022-12-11T07:32:37.824Z,3.96
2022-12-11T07:35:05.118Z,3.94
2022-12-11T07:37:31.787Z,3.95
2022-12-11T07:39:58.385Z,3.90
2022-12-11T07:42:25.395Z,3.91
2022-12-11T07:44:52.032Z,3.91
2022-12-11T07:47:19.037Z,3.87
2022-12-11T07:49:45.687Z,3.92
2022-12-11T07:52:12.431Z,3.88
2022-12-11T07:54:39.031Z,3.86
2022-12-11T07:57:12.323Z,3.71
2022-12-11T07:59:41.916Z,4.00
2022-12-11T08:02:11.929Z,3.89
2022-12-11T08:04:38.858Z,3.95
2022-12-11T08:07:05.460Z,3.99
2022-12-11T08:09:32.163Z,4.03
2022-12-11T08:11:58.882Z,4.01
2022-12-11T08:14:25.572Z,3.97
2022-12-11T08:16:52.360Z,4.03
2022-12-11T08:19:19.002Z,3.99
2022-12-11T08:21:45.683Z,4.13
2022-12-11T08:24:16.323Z,4.19
2022-12-11T08:26:44.527Z,4.23
2022-12-11T08:29:11.270Z,4.10
2022-12-11T08:31:40.183Z,4.15
2022-12-11T08:34:07.290Z,4.29
2022-12-11T08:36:34.222Z,4.21
2022-12-11T08:39:01.009Z,4.33
2022-12-11T08:41:30.249Z,4.37
2022-12-11T08:44:00.405Z,4.41
2022-12-11T08:46:30.369Z,4.45
2022-12-11T08:48:58.132Z,4.48
2022-12-11T08:51:28.160Z,4.47
2022-12-11T08:53:59.954Z,4.48
2022-12-11T08:56:28.393Z,4.50
2022-12-11T08:58:55.533Z,4.60
2022-12-11T09:01:25.448Z,4.59
2022-12-11T09:03:53.660Z,4.56
2022-12-11T09:06:22.688Z,4.60
2022-12-11T09:08:52.911Z,4.69
2022-12-11T09:11:23.267Z,4.71
2022-12-11T09:13:50.582Z,4.67
2022-12-11T09:16:20.063Z,4.74
2022-12-11T09:18:48.472Z,4.72
2022-12-11T09:21:18.691Z,4.78
2022-12-11T09:23:46.430Z,4.82
2022-12-11T09:26:15.763Z,4.77
2022-12-11T09:28:46.513Z,4.78
2022-12-11T09:31:20.171Z,4.85
2022-12-11T09:33:48.229Z,4.85
2022-12-11T09:36:15.789Z,4.87
2022-12-11T09:38:45.623Z,4.91
2022-12-11T09:41:36.277Z,4.90
2022-12-11T09:44:32.419Z,4.95
2022-12-11T09:46:59.686Z,4.97
2022-12-11T09:49:43.664Z,4.99
2022-12-11T09:52:20.053Z,4.98
2022-12-11T09:54:57.634Z,5.02
2022-12-11T09:57:35.992Z,4.92
2022-12-11T10:00:09.648Z,5.03
2022-12-11T10:03:07.320Z,5.13
2022-12-11T10:06:04.456Z,5.15
2022-12-11T10:08:56.879Z,5.17
2022-12-11T10:11:56.722Z,5.21
2022-12-11T10:15:19.687Z,5.21
2022-12-11T10:17:47.555Z,5.21
2022-12-11T10:20:26.973Z,5.27
2022-12-11T10:22:56.203Z,5.15
2022-12-11T10:25:28.353Z,5.29
2022-12-11T10:27:55.573Z,5.30
2022-12-11T10:30:34.383Z,5.32
2022-12-11T10:33:22.514Z,5.33
2022-12-11T10:35:54.928Z,5.33
2022-12-11T10:38:31.854Z,5.31
2022-12-11T10:41:04.009Z,5.33
2022-12-11T10:43:36.684Z,5.40
2022-12-11T10:46:05.038Z,5.42
2022-12-11T10:48:31.852Z,5.47
2022-12-11T10:51:05.103Z,5.46
2022-12-11T10:53:33.441Z,5.48
2022-12-11T10:56:01.546Z,5.54
2022-12-11T10:58:34.240Z,5.47
2022-12-11T11:01:19.058Z,5.52
2022-12-11T11:03:56.798Z,5.45
2022-12-11T11:06:25.133Z,5.52
2022-12-11T11:08:54.507Z,5.51
2022-12-11T11:11:27.211Z,5.57
2022-12-11T11:14:17.546Z,5.58
2022-12-11T11:16:47.137Z,5.64
2022-12-11T11:19:30.581Z,5.71
2022-12-11T11:22:17.980Z,5.76
2022-12-11T11:24:46.905Z,5.76
2022-12-11T11:27:26.170Z,5.78
2022-12-11T11:30:00.667Z,5.72
2022-12-11T11:32:34.158Z,5.75
2022-12-11T11:35:13.661Z,5.77
2022-12-11T11:37:46.230Z,5.74
2022-12-11T11:40:19.861Z,5.77
2022-12-11T11:42:56.415Z,5.75
2022-12-11T11:45:32.193Z,5.78
2022-12-11T11:48:30.057Z,5.82
2022-12-11T11:50:58.107Z,5.78
2022-12-11T11:53:31.402Z,5.85
2022-12-11T11:56:22.531Z,5.92
2022-12-11T11:59:02.268Z,5.88
2022-12-11T12:01:30.056Z,5.86
2022-12-11T12:03:57.663Z,5.98
2022-12-11T12:07:06.962Z,5.98
2022-12-11T12:09:33.684Z,6.03
2022-12-11T12:12:12.058Z,6.01
2022-12-11T12:15:07.754Z,6.10
2022-12-11T12:17:56.640Z,6.06
2022-12-11T12:20:29.826Z,6.05
2022-12-11T12:23:15.776Z,6.02
2022-12-11T12:25:45.514Z,6.07
2022-12-11T12:28:36.407Z,6.13
2022-12-11T12:31:14.504Z,6.14
2022-12-11T12:34:03.042Z,6.12
2022-12-11T12:36:32.847Z,6.18
2022-12-11T12:38:59.488Z,6.20
2022-12-11T12:41:52.601Z,6.20
2022-12-11T12:44:22.397Z,6.23
2022-12-11T12:46:51.963Z,6.22
2022-12-11T12:49:53.229Z,6.02
2022-12-11T12:52:46.526Z,6.23
2022-12-11T12:55:18.022Z,6.15
2022-12-11T12:58:00.188Z,6.24
2022-12-11T13:00:43.967Z,6.14
2022-12-11T13:03:17.121Z,6.14
2022-12-11T13:05:55.434Z,6.14
2022-12-11T13:08:34.815Z,6.08
2022-12-11T13:11:07.682Z,6.24
2022-12-11T13:13:34.291Z,6.27
2022-12-11T13:16:16.191Z,6.27
2022-12-11T13:18:48.170Z,6.25
2022-12-11T13:21:32.241Z,6.34
2022-12-11T13:24:21.441Z,6.25
2022-12-11T13:26:49.856Z,6.33
2022-12-11T13:29:37.818Z,6.27
2022-12-11T13:32:10.425Z,6.34
2022-12-11T13:34:41.009Z,6.28
2022-12-11T13:37:26.014Z,6.36
2022-12-11T13:39:53.098Z,6.32
2022-12-11T13:42:27.680Z,6.48
2022-12-11T13:44:54.515Z,6.53
2022-12-11T13:47:21.692Z,6.62
2022-12-11T13:49:54.622Z,6.62
2022-12-11T13:52:25.836Z,6.69
2022-12-11T13:54:55.681Z,6.73
2022-12-11T13:57:28.681Z,6.75
2022-12-11T13:59:57.668Z,6.80
2022-12-11T14:02:30.367Z,6.79
2022-12-11T14:05:01.953Z,6.77
2022-12-11T14:07:33.574Z,6.79
2022-12-11T14:10:14.366Z,6.76
2022-12-11T14:12:56.165Z,6.74
2022-12-11T14:15:23.492Z,6.78
2022-12-11T14:17:52.054Z,6.74
2022-12-11T14:20:23.092Z,6.71
2022-12-11T14:22:50.096Z,6.79
2022-12-11T14:25:34.846Z,6.75
2022-12-11T14:28:01.747Z,6.76
2022-12-11T14:30:31.655Z,6.73
2022-12-11T14:33:02.830Z,6.69
2022-12-11T14:35:38.888Z,6.65
2022-12-11T14:38:33.044Z,6.63
2022-12-11T14:41:05.611Z,6.59
2022-12-11T14:43:48.474Z,6.52
2022-12-11T14:46:23.721Z,6.42
2022-12-11T14:49:02.119Z,6.38
2022-12-11T14:51:34.867Z,6.35
2022-12-11T14:54:03.114Z,6.31
2022-12-11T14:56:30.535Z,6.20
2022-12-11T14:59:03.092Z,6.14
2022-12-11T15:01:32.827Z,6.02
2022-12-11T15:04:04.038Z,5.95
2022-12-11T15:06:43.489Z,5.85
2022-12-11T15:09:18.031Z,5.79
2022-12-11T15:11:45.781Z,5.77
2022-12-11T15:14:13.867Z,5.67
2022-12-11T15:16:42.208Z,5.53
2022-12-11T15:19:19.324Z,5.57
2022-12-11T15:21:46.162Z,5.47
2022-12-11T15:24:24.978Z,5.37
2022-12-11T15:26:52.293Z,5.31
2022-12-11T15:29:40.116Z,5.20
2022-12-11T15:32:09.825Z,5.15
2022-12-11T15:34:46.089Z,5.08
2022-12-11T15:37:30.742Z,5.16
2022-12-11T15:39:59.852Z,5.12
2022-12-11T15:42:32.385Z,5.02
2022-12-11T15:45:00.274Z,4.98
2022-12-11T15:47:30.062Z,4.90
2022-12-11T15:50:21.740Z,4.89
2022-12-11T15:52:49.490Z,4.93
2022-12-11T15:55:16.652Z,4.84
2022-12-11T15:57:47.332Z,4.83
2022-12-11T16:00:15.928Z,4.76
2022-12-11T16:02:42.805Z,4.73
2022-12-11T16:05:10.060Z,4.69
2022-12-11T16:07:37.170Z,4.69
2022-12-11T16:10:05.060Z,4.64
2022-12-11T16:12:32.408Z,4.64
2022-12-11T16:14:59.275Z,4.65
2022-12-11T16:17:26.584Z,4.58
2022-12-11T16:19:54.278Z,4.60
2022-12-11T16:22:20.943Z,4.42
2022-12-11T16:24:47.725Z,4.57
2022-12-11T16:27:17.397Z,4.60
2022-12-11T16:29:48.295Z,4.57
2022-12-11T16:32:15.159Z,4.55
2022-12-11T16:34:41.891Z,4.50
2022-12-11T16:37:09.413Z,4.51
2022-12-11T16:39:37.894Z,4.55
2022-12-11T16:42:06.165Z,4.47
2022-12-11T16:44:33.344Z,4.45
2022-12-11T16:47:00.225Z,4.47
2022-12-11T16:49:27.036Z,4.45
2022-12-11T16:51:53.628Z,4.35
2022-12-11T16:54:20.355Z,4.35
2022-12-11T16:56:47.104Z,4.29
2022-12-11T16:59:13.827Z,4.33
2022-12-11T17:01:41.833Z,4.31
2022-12-11T17:04:08.868Z,4.28
2022-12-11T17:06:35.570Z,4.30
2022-12-11T17:09:02.671Z,4.33
2022-12-11T17:11:29.356Z,4.28
2022-12-11T17:13:58.036Z,4.28
2022-12-11T17:16:26.574Z,4.29
2022-12-11T17:18:53.571Z,4.26
2022-12-11T17:21:22.335Z,4.20
2022-12-11T17:23:50.531Z,4.14
2022-12-11T17:26:18.054Z,4.09
2022-12-11T17:28:44.874Z,4.02
2022-12-11T17:31:15.264Z,4.02
2022-12-11T17:33:42.371Z,4.00
2022-12-11T17:36:13.319Z,4.04
2022-12-11T17:38:40.188Z,4.04
2022-12-11T17:41:08.995Z,3.99
2022-12-11T17:43:36.058Z,4.00
2022-12-11T17:46:03.230Z,3.91
2022-12-11T17:48:30.095Z,3.81
2022-12-11T17:50:56.781Z,3.89
2022-12-11T17:53:24.430Z,3.88
2022-12-11T17:55:52.124Z,3.94
2022-12-11T17:58:23.361Z,3.87
2022-12-11T18:00:53.209Z,3.84
2022-12-11T18:03:20.655Z,3.79
2022-12-11T18:05:52.445Z,3.81
2022-12-11T18:08:30.174Z,3.80
2022-12-11T18:11:05.359Z,3.75
2022-12-11T18:13:32.999Z,3.75
2022-12-11T18:16:11.616Z,3.73
2022-12-11T18:18:39.295Z,3.72
2022-12-11T18:21:06.615Z,3.68
2022-12-11T18:23:34.243Z,3.62
2022-12-11T18:26:01.906Z,3.65
2022-12-11T18:28:31.747Z,3.70
2022-12-11T18:31:02.698Z,3.64
2022-12-11T18:33:30.952Z,3.61
2022-12-11T18:35:57.659Z,3.59
2022-12-11T18:38:24.485Z,3.55
2022-12-11T18:40:51.174Z,3.51
2022-12-11T18:43:18.291Z,3.39
2022-12-11T18:45:45.626Z,3.37
2022-12-11T18:48:13.344Z,3.32
2022-12-11T18:50:51.249Z,3.25
2022-12-11T18:53:18.798Z,3.14
2022-12-11T18:55:47.476Z,2.92
2022-12-11T18:58:16.271Z,2.94
2022-12-11T19:00:43.574Z,2.74
2022-12-11T19:03:12.011Z,2.68
2022-12-11T19:05:42.351Z,2.75
2022-12-11T19:08:09.581Z,2.62
2022-12-11T19:10:42.159Z,2.67
2022-12-11T19:13:09.145Z,2.63
2022-12-11T19:15:42.337Z,2.56
2022-12-11T19:18:10.209Z,2.61
2022-12-11T19:21:04.679Z,2.64
2022-12-11T19:23:25.578Z,2.50
2022-12-11T19:25:52.285Z,2.49
2022-12-11T19:28:19.023Z,2.45
2022-12-11T19:30:48.759Z,2.40
2022-12-11T19:33:16.553Z,2.30
2022-12-11T19:35:43.666Z,2.28
2022-12-11T19:38:10.578Z,1.63
2022-12-11T19:40:41.893Z,1.79
2022-12-11T19:43:09.089Z,1.56
2022-12-11T19:45:36.092Z,1.72
2022-12-11T19:48:03.365Z,1.34
2022-12-11T19:50:30.074Z,1.37
2022-12-11T19:52:57.055Z,1.44
2022-12-11T19:55:23.752Z,1.52
2022-12-11T19:57:50.737Z,1.65
2022-12-11T20:00:18.782Z,1.48
2022-12-11T20:02:45.511Z,1.60
2022-12-11T20:05:13.106Z,1.66
2022-12-11T20:07:40.385Z,1.72
2022-12-11T20:10:07.532Z,1.77
2022-12-11T20:12:34.278Z,1.82
2022-12-11T20:15:01.204Z,1.83
2022-12-11T20:17:28.254Z,1.83
2022-12-11T20:19:55.035Z,1.82
2022-12-11T20:22:24.478Z,1.78
2022-12-11T20:24:51.368Z,1.74
2022-12-11T20:27:26.160Z,1.79
2022-12-11T20:30:02.884Z,1.91
2022-12-11T20:32:34.242Z,1.92
2022-12-11T20:35:01.027Z,1.92
2022-12-11T20:37:29.005Z,1.96
2022-12-11T20:39:55.988Z,1.89
2022-12-11T20:42:22.719Z,1.89
2022-12-11T20:44:49.874Z,1.86
2022-12-11T20:47:19.905Z,1.87
2022-12-11T20:49:48.078Z,1.63
2022-12-11T20:52:15.435Z,1.54
2022-12-11T20:54:42.452Z,1.57
2022-12-11T20:57:09.924Z,1.50
2022-12-11T20:59:37.071Z,1.37
2022-12-11T21:02:05.239Z,1.22
2022-12-11T21:04:31.994Z,1.31
2022-12-11T21:07:00.155Z,1.35
2022-12-11T21:09:27.780Z,1.31
2022-12-11T21:11:58.133Z,1.42
2022-12-11T21:14:24.975Z,1.42
2022-12-11T21:16:52.101Z,1.45
2022-12-11T21:19:20.259Z,1.48
2022-12-11T21:21:47.090Z,1.46
2022-12-11T21:24:22.968Z,1.35
2022-12-11T21:26:50.204Z,1.09
2022-12-11T21:29:17.577Z,1.00
2022-12-11T21:31:44.678Z,0.96
2022-12-11T21:34:11.332Z,0.95
2022-12-11T21:36:38.167Z,0.94
2022-12-11T21:39:05.312Z,0.88
2022-12-11T21:41:32.727Z,0.75
2022-12-11T21:45:26.060Z,0.77
2022-12-11T21:46:46.734Z,0.82
2022-12-11T21:49:13.353Z,0.71
2022-12-11T21:51:46.735Z,0.76
2022-12-11T21:54:17.226Z,0.89
2022-12-11T21:56:45.157Z,0.99
2022-12-11T21:59:12.269Z,1.00
2022-12-11T22:01:42.248Z,1.11
2022-12-11T22:04:10.824Z,0.80
2022-12-11T22:06:37.499Z,0.78
2022-12-11T22:09:06.000Z,0.79
2022-12-11T22:11:34.109Z,0.79
2022-12-11T22:14:01.371Z,0.91
2022-12-11T22:16:28.831Z,1.02
2022-12-11T22:18:55.887Z,1.09
2022-12-11T22:21:23.552Z,1.08
2022-12-11T22:23:50.692Z,1.12
2022-12-11T22:26:23.892Z,1.11
2022-12-11T22:28:50.711Z,1.10
2022-12-11T22:31:20.650Z,1.08
2022-12-11T22:33:49.967Z,0.98
2022-12-11T22:36:19.871Z,0.92
2022-12-11T22:38:47.370Z,0.94
2022-12-11T22:41:21.974Z,1.00
2022-12-11T22:43:49.285Z,1.01
2022-12-11T22:46:18.281Z,1.06
2022-12-11T22:48:45.086Z,0.99
2022-12-11T22:51:12.351Z,0.92
2022-12-11T22:53:39.317Z,0.93
2022-12-11T22:56:07.594Z,0.79
2022-12-11T22:58:35.119Z,0.78
2022-12-11T23:01:02.051Z,0.73
2022-12-11T23:03:28.699Z,0.60
2022-12-11T23:05:55.420Z,0.74
2022-12-11T23:08:22.290Z,0.69
2022-12-11T23:10:49.111Z,0.85
2022-12-11T23:13:15.863Z,0.71
2022-12-11T23:15:42.415Z,0.75
2022-12-11T23:18:09.036Z,0.78
2022-12-11T23:20:35.879Z,0.71
2022-12-11T23:23:02.839Z,0.68
2022-12-11T23:25:29.445Z,0.60
2022-12-11T23:27:56.333Z,0.64
2022-12-11T23:30:23.963Z,0.68
2022-12-11T23:32:50.647Z,0.69
2022-12-11T23:35:17.449Z,0.75
2022-12-11T23:37:44.143Z,0.70
2022-12-11T23:40:11.316Z,0.68
2022-12-11T23:42:37.929Z,0.73
2022-12-11T23:45:04.965Z,0.63
2022-12-11T23:47:31.869Z,0.70
2022-12-11T23:49:58.501Z,0.67
2022-12-11T23:52:26.623Z,0.56
2022-12-11T23:54:55.219Z,0.56
2022-12-11T23:57:23.520Z,0.67
2022-12-11T23:59:50.254Z,0.80
